Time;durP1;ratioP1;P1;durP2;ratioP2;P2;SDS_P1;SDS_P2;PMS_P1;PMS_P2;Temp;Humidity;BMP_temperature;BMP_pressure;BME280_temperature;BME280_humidity;BME280_pressure;Samples;Min_cycle;Max_cycle;Signal;HPM_P1;HPM_P2
2022/07/31 00:01:11;;;;;;;3.25;2.00;;;;;;;;;;5042465;28;20433;-69
2022/07/31 00:03:36;;;;;;;5.50;2.17;;;;;;;;;;5051592;28;20112;-69
2022/07/31 00:06:01;;;;;;;2.20;1.83;;;;;;;;;;5051535;28;20318;-69
2022/07/31 00:08:27;;;;;;;2.70;1.85;;;;;;;;;;5051525;28;20533;-69
2022/07/31 00:10:52;;;;;;;2.78;1.98;;;;;;;;;;5051184;28;20114;-69
2022/07/31 00:13:17;;;;;;;3.58;2.30;;;;;;;;;;5051308;28;20043;-69
2022/07/31 00:15:42;;;;;;;5.30;2.28;;;;;;;;;;5035209;28;20462;-69
2022/07/31 00:18:08;;;;;;;3.05;1.90;;;;;;;;;;5040064;28;20021;-69
2022/07/31 00:20:34;;;;;;;3.53;2.20;;;;;;;;;;5031044;28;20468;-69
2022/07/31 00:22:59;;;;;;;3.63;2.08;;;;;;;;;;5031679;28;20474;-69
2022/07/31 00:25:25;;;;;;;2.20;2.00;;;;;;;;;;5031244;28;20033;-69
2022/07/31 00:27:50;;;;;;;2.40;2.20;;;;;;;;;;5031162;28;20025;-69
2022/07/31 00:30:16;;;;;;;2.50;2.28;;;;;;;;;;5028727;28;20529;-69
2022/07/31 00:32:42;;;;;;;5.10;2.00;;;;;;;;;;5032837;28;20025;-69
2022/07/31 00:35:12;;;;;;;2.38;2.00;;;;;;;;;;5031434;28;20025;-69
2022/07/31 00:37:38;;;;;;;2.28;2.08;;;;;;;;;;5031208;28;20078;-69
2022/07/31 00:40:05;;;;;;;2.40;1.98;;;;;;;;;;5030821;28;20114;-69
2022/07/31 00:42:30;;;;;;;3.33;1.85;;;;;;;;;;5032404;28;20028;-69
2022/07/31 00:44:55;;;;;;;3.08;1.90;;;;;;;;;;5041142;28;20413;-69
2022/07/31 00:47:20;;;;;;;3.75;2.28;;;;;;;;;;5032105;28;20105;-69
2022/07/31 00:49:46;;;;;;;2.88;2.08;;;;;;;;;;5030679;28;20040;-69
2022/07/31 00:52:11;;;;;;;3.22;2.20;;;;;;;;;;5031055;28;20021;-69
2022/07/31 00:54:38;;;;;;;2.65;2.30;;;;;;;;;;5030894;28;20033;-69
2022/07/31 00:57:03;;;;;;;2.63;2.00;;;;;;;;;;5028703;28;20096;-69
2022/07/31 00:59:30;;;;;;;2.70;2.30;;;;;;;;;;5046786;28;20034;-69
2022/07/31 01:01:56;;;;;;;4.72;2.00;;;;;;;;;;5030510;28;20424;-69
2022/07/31 01:04:22;;;;;;;2.58;2.22;;;;;;;;;;5030866;28;20434;-69
2022/07/31 01:06:47;;;;;;;2.78;2.13;;;;;;;;;;5028641;28;20090;-69
2022/07/31 01:09:13;;;;;;;4.57;2.20;;;;;;;;;;5030374;28;20029;-69
2022/07/31 01:12:04;;;;;;;2.22;2.03;;;;;;;;;;5027352;28;20026;-69
2022/07/31 01:14:39;;;;;;;2.88;2.30;;;;;;;;;;5040127;28;20021;-69
2022/07/31 01:17:05;;;;;;;3.00;2.20;;;;;;;;;;5042125;28;20024;-69
2022/07/31 01:19:36;;;;;;;6.30;2.45;;;;;;;;;;5042258;28;20040;-69
2022/07/31 01:22:16;;;;;;;2.78;2.13;;;;;;;;;;5034845;28;20180;-69
2022/07/31 01:24:57;;;;;;;2.13;1.92;;;;;;;;;;5025599;28;20112;-69
2022/07/31 01:27:34;;;;;;;3.40;2.40;;;;;;;;;;5030264;28;20021;-69
2022/07/31 01:30:01;;;;;;;6.60;2.30;;;;;;;;;;5029869;28;20048;-69
2022/07/31 01:32:39;;;;;;;2.85;2.20;;;;;;;;;;5030187;28;20037;-69
2022/07/31 01:35:16;;;;;;;5.55;2.13;;;;;;;;;;5036968;28;20033;-69
2022/07/31 01:37:49;;;;;;;2.38;2.17;;;;;;;;;;5010377;28;20033;-69
2022/07/31 01:40:19;;;;;;;2.42;2.20;;;;;;;;;;5010671;28;20495;-69
2022/07/31 01:42:50;;;;;;;5.13;2.60;;;;;;;;;;5030018;28;20067;-69
2022/07/31 01:45:19;;;;;;;2.33;2.13;;;;;;;;;;5029816;28;20064;-69
2022/07/31 01:47:47;;;;;;;4.35;2.50;;;;;;;;;;5030074;28;20041;-69
2022/07/31 01:50:14;;;;;;;3.10;1.95;;;;;;;;;;5027520;28;20062;-69
2022/07/31 01:52:41;;;;;;;2.58;2.38;;;;;;;;;;5038095;28;20040;-69
2022/07/31 01:55:09;;;;;;;2.97;2.30;;;;;;;;;;5029799;28;20083;-69
2022/07/31 01:57:35;;;;;;;6.32;2.33;;;;;;;;;;5029751;28;20087;-69
2022/07/31 02:00:05;;;;;;;3.78;2.17;;;;;;;;;;5029547;28;20361;-69
2022/07/31 02:02:31;;;;;;;2.20;2.00;;;;;;;;;;5029642;28;20056;-69
2022/07/31 02:04:57;;;;;;;2.55;2.20;;;;;;;;;;5029616;28;20026;-69
2022/07/31 02:07:24;;;;;;;5.10;2.33;;;;;;;;;;5032293;28;20531;-69
2022/07/31 02:09:50;;;;;;;2.25;2.05;;;;;;;;;;5041015;28;20068;-69
2022/07/31 02:12:17;;;;;;;2.40;2.17;;;;;;;;;;5041149;28;20033;-69
2022/07/31 02:14:42;;;;;;;2.97;2.30;;;;;;;;;;5049501;28;20028;-69
2022/07/31 02:17:08;;;;;;;3.08;2.22;;;;;;;;;;5049335;28;20029;-69
2022/07/31 02:19:38;;;;;;;3.25;2.30;;;;;;;;;;5049048;28;20430;-69
2022/07/31 02:22:03;;;;;;;5.20;2.38;;;;;;;;;;5048604;28;20025;-69
2022/07/31 02:24:29;;;;;;;2.83;2.20;;;;;;;;;;5034571;28;20030;-69
2022/07/31 02:26:56;;;;;;;2.40;2.20;;;;;;;;;;5040406;28;20064;-69
2022/07/31 02:29:23;;;;;;;3.67;2.53;;;;;;;;;;5027659;28;20047;-69
2022/07/31 02:31:54;;;;;;;3.50;2.28;;;;;;;;;;5028843;28;20056;-68
2022/07/31 02:34:21;;;;;;;2.97;2.42;;;;;;;;;;5028137;28;20284;-69
2022/07/31 02:36:47;;;;;;;3.30;2.17;;;;;;;;;;5028644;28;20060;-69
2022/07/31 02:39:13;;;;;;;2.55;2.13;;;;;;;;;;5027970;28;20057;-69
2022/07/31 02:41:40;;;;;;;2.50;2.30;;;;;;;;;;5039969;28;20029;-69
2022/07/31 02:44:06;;;;;;;3.70;2.10;;;;;;;;;;5048747;28;20035;-69
2022/07/31 02:46:31;;;;;;;3.22;2.30;;;;;;;;;;5041377;28;20037;-69
2022/07/31 02:48:57;;;;;;;2.70;2.50;;;;;;;;;;5043998;28;20036;-69
2022/07/31 02:51:23;;;;;;;3.60;2.42;;;;;;;;;;5041216;28;20487;-68
2022/07/31 02:53:48;;;;;;;3.25;2.45;;;;;;;;;;5040197;28;20033;-69
2022/07/31 02:56:14;;;;;;;3.13;2.30;;;;;;;;;;5032711;28;20105;-69
2022/07/31 02:58:43;;;;;;;2.70;2.35;;;;;;;;;;5028569;28;20112;-69
2022/07/31 03:01:09;;;;;;;3.05;2.22;;;;;;;;;;5019187;28;20061;-69
2022/07/31 03:03:34;;;;;;;4.20;2.42;;;;;;;;;;5048143;28;20057;-69
2022/07/31 03:06:00;;;;;;;3.88;2.33;;;;;;;;;;5048101;28;20036;-69
2022/07/31 03:08:28;;;;;;;3.55;2.80;;;;;;;;;;5048347;28;20013;-69
2022/07/31 03:10:53;;;;;;;2.53;2.33;;;;;;;;;;5047931;28;20020;-69
2022/07/31 03:13:21;;;;;;;2.95;2.35;;;;;;;;;;5048202;28;20024;-69
2022/07/31 03:15:48;;;;;;;2.88;2.47;;;;;;;;;;5027625;28;20021;-69
2022/07/31 03:18:15;;;;;;;2.38;2.17;;;;;;;;;;5044604;28;20033;-69
2022/07/31 03:20:41;;;;;;;3.58;2.17;;;;;;;;;;5027755;28;20071;-69
2022/07/31 03:23:09;;;;;;;4.05;2.25;;;;;;;;;;5027029;28;20021;-69
2022/07/31 03:25:34;;;;;;;3.95;2.60;;;;;;;;;;5028218;28;20034;-69
2022/07/31 03:28:00;;;;;;;3.65;2.53;;;;;;;;;;5028054;28;20082;-69
2022/07/31 03:30:25;;;;;;;3.72;2.55;;;;;;;;;;5024898;28;20033;-69
2022/07/31 03:32:51;;;;;;;2.83;2.38;;;;;;;;;;5030840;28;20112;-69
2022/07/31 03:35:17;;;;;;;2.72;2.50;;;;;;;;;;5049638;28;20021;-69
2022/07/31 03:37:43;;;;;;;3.78;2.33;;;;;;;;;;5052231;28;20033;-69
2022/07/31 03:40:09;;;;;;;3.80;2.53;;;;;;;;;;5051788;28;20061;-69
2022/07/31 03:42:34;;;;;;;2.95;2.40;;;;;;;;;;5051981;28;20410;-68
2022/07/31 03:45:01;;;;;;;2.67;2.47;;;;;;;;;;5051945;28;20020;-69
2022/07/31 03:47:26;;;;;;;2.50;2.30;;;;;;;;;;5045647;28;20637;-68
2022/07/31 03:49:52;;;;;;;4.45;2.60;;;;;;;;;;5033533;28;20371;-69
2022/07/31 03:52:18;;;;;;;2.22;2.03;;;;;;;;;;5027380;28;20025;-69
2022/07/31 03:54:43;;;;;;;3.00;2.25;;;;;;;;;;5031799;28;20162;-69
2022/07/31 03:57:09;;;;;;;2.88;2.45;;;;;;;;;;5031655;28;20112;-69
2022/07/31 03:59:35;;;;;;;3.15;2.70;;;;;;;;;;5031748;28;20036;-69
2022/07/31 04:02:01;;;;;;;4.82;2.70;;;;;;;;;;5032172;28;20025;-69
2022/07/31 04:04:26;;;;;;;2.78;2.55;;;;;;;;;;5038274;28;20130;-69
2022/07/31 04:06:51;;;;;;;2.92;2.65;;;;;;;;;;5031624;28;20411;-69
2022/07/31 04:09:17;;;;;;;4.68;2.58;;;;;;;;;;5031812;28;20021;-69
2022/07/31 04:11:42;;;;;;;4.28;2.63;;;;;;;;;;5031535;28;20036;-69
2022/07/31 04:14:08;;;;;;;3.47;2.35;;;;;;;;;;5031627;28;20044;-69
2022/07/31 04:16:33;;;;;;;4.00;2.50;;;;;;;;;;5031540;28;20075;-69
2022/07/31 04:18:58;;;;;;;5.57;2.40;;;;;;;;;;5034568;28;20550;-69
2022/07/31 04:21:24;;;;;;;3.83;2.30;;;;;;;;;;5050991;28;20021;-69
2022/07/31 04:23:49;;;;;;;2.97;2.50;;;;;;;;;;5034531;28;20128;-69
2022/07/31 04:26:14;;;;;;;2.85;2.40;;;;;;;;;;5033623;28;20103;-69
2022/07/31 04:28:39;;;;;;;2.97;2.58;;;;;;;;;;5031587;28;20032;-69
2022/07/31 04:31:05;;;;;;;3.65;2.67;;;;;;;;;;5031115;28;20039;-69
2022/07/31 04:33:30;;;;;;;3.17;2.65;;;;;;;;;;5038202;28;20438;-69
2022/07/31 04:35:55;;;;;;;3.28;2.60;;;;;;;;;;5046147;28;20028;-69
2022/07/31 04:38:20;;;;;;;4.32;2.50;;;;;;;;;;5029380;28;20351;-69
2022/07/31 04:40:47;;;;;;;2.55;2.30;;;;;;;;;;5030891;28;20029;-69
2022/07/31 04:43:12;;;;;;;6.75;2.63;;;;;;;;;;5029083;28;20579;-69
2022/07/31 04:45:38;;;;;;;4.10;2.42;;;;;;;;;;5029669;28;20113;-69
2022/07/31 04:48:03;;;;;;;3.33;2.70;;;;;;;;;;5026853;28;20088;-69
2022/07/31 04:50:29;;;;;;;2.65;2.33;;;;;;;;;;5033991;28;20028;-69
2022/07/31 04:52:54;;;;;;;2.70;2.50;;;;;;;;;;5045692;28;20036;-69
2022/07/31 04:55:20;;;;;;;2.60;2.40;;;;;;;;;;5050722;28;20115;-69
2022/07/31 04:57:45;;;;;;;3.08;2.50;;;;;;;;;;5051218;28;20045;-69
2022/07/31 05:00:11;;;;;;;3.22;2.65;;;;;;;;;;5032475;28;20375;-70
2022/07/31 05:02:36;;;;;;;2.60;2.40;;;;;;;;;;5050591;28;20028;-69
2022/07/31 05:05:02;;;;;;;2.97;2.50;;;;;;;;;;5048598;28;20025;-69
2022/07/31 05:07:28;;;;;;;2.92;2.50;;;;;;;;;;5012579;28;20050;-69
2022/07/31 05:09:53;;;;;;;4.00;2.67;;;;;;;;;;5033364;28;20086;-69
2022/07/31 05:12:18;;;;;;;2.65;2.45;;;;;;;;;;5046822;28;20471;-70
2022/07/31 05:14:43;;;;;;;3.33;2.80;;;;;;;;;;5025628;28;20030;-70
2022/07/31 05:17:09;;;;;;;4.10;2.85;;;;;;;;;;5030272;28;20306;-69
2022/07/31 05:19:34;;;;;;;3.22;2.70;;;;;;;;;;5030317;28;20036;-69
2022/07/31 05:21:59;;;;;;;3.30;2.65;;;;;;;;;;5028616;28;20036;-69
2022/07/31 05:24:25;;;;;;;5.00;2.78;;;;;;;;;;5040205;28;20049;-69
2022/07/31 05:26:50;;;;;;;6.93;2.92;;;;;;;;;;5037450;28;20036;-70
2022/07/31 05:29:16;;;;;;;3.42;2.78;;;;;;;;;;5047976;28;20033;-70
2022/07/31 05:31:41;;;;;;;3.97;2.65;;;;;;;;;;5049912;28;20028;-69
2022/07/31 05:34:06;;;;;;;4.50;2.88;;;;;;;;;;5049939;28;20031;-70
2022/07/31 05:36:32;;;;;;;2.80;2.60;;;;;;;;;;5050159;28;20494;-70
2022/07/31 05:38:57;;;;;;;3.83;2.22;;;;;;;;;;5043072;28;20072;-70
2022/07/31 05:41:23;;;;;;;3.00;2.58;;;;;;;;;;5029954;28;20510;-70
2022/07/31 05:43:48;;;;;;;2.67;2.00;;;;;;;;;;5037919;28;20055;-69
2022/07/31 05:46:15;;;;;;;2.70;2.50;;;;;;;;;;5040328;28;20432;-70
2022/07/31 05:48:41;;;;;;;2.83;2.58;;;;;;;;;;5030147;28;20025;-70
2022/07/31 05:51:11;;;;;;;2.55;2.35;;;;;;;;;;5023533;28;20036;-69
2022/07/31 05:53:37;;;;;;;3.78;2.45;;;;;;;;;;5039049;28;20025;-70
2022/07/31 05:56:02;;;;;;;2.83;2.55;;;;;;;;;;5042037;28;20033;-69
2022/07/31 05:58:27;;;;;;;4.10;2.53;;;;;;;;;;5000310;28;20845;-70
2022/07/31 06:00:53;;;;;;;3.88;2.63;;;;;;;;;;5032517;28;20104;-70
2022/07/31 06:03:23;;;;;;;3.42;2.58;;;;;;;;;;5020701;28;20036;-69
2022/07/31 06:05:49;;;;;;;3.53;2.80;;;;;;;;;;5029500;28;20040;-69
2022/07/31 06:08:15;;;;;;;3.58;2.90;;;;;;;;;;5025751;28;20052;-69
2022/07/31 06:10:40;;;;;;;3.53;2.67;;;;;;;;;;5026755;28;20026;-69
2022/07/31 06:13:06;;;;;;;3.90;3.05;;;;;;;;;;5025755;28;20131;-69
2022/07/31 06:15:32;;;;;;;2.55;2.30;;;;;;;;;;5009648;28;20496;-69
2022/07/31 06:17:58;;;;;;;2.50;2.30;;;;;;;;;;5009588;28;20034;-69
2022/07/31 06:20:23;;;;;;;4.25;2.63;;;;;;;;;;5034535;28;20482;-69
2022/07/31 06:22:48;;;;;;;2.78;2.50;;;;;;;;;;5034273;28;20107;-70
2022/07/31 06:25:15;;;;;;;2.80;2.47;;;;;;;;;;5019321;28;20044;-69
2022/07/31 06:27:40;;;;;;;2.67;2.33;;;;;;;;;;5028209;28;20087;-69
2022/07/31 06:30:06;;;;;;;3.08;2.50;;;;;;;;;;5025308;28;20021;-69
2022/07/31 06:32:33;;;;;;;4.47;2.58;;;;;;;;;;5028408;28;20037;-70
2022/07/31 06:34:58;;;;;;;4.13;2.50;;;;;;;;;;5028742;28;20112;-69
2022/07/31 06:37:24;;;;;;;4.35;2.55;;;;;;;;;;5028737;28;20108;-69
2022/07/31 06:39:50;;;;;;;3.17;2.80;;;;;;;;;;5018785;28;20017;-69
2022/07/31 06:42:19;;;;;;;3.53;2.70;;;;;;;;;;5021980;28;20036;-70
2022/07/31 06:44:45;;;;;;;2.97;2.67;;;;;;;;;;5014010;28;20245;-69
2022/07/31 06:47:10;;;;;;;2.78;2.42;;;;;;;;;;5018729;28;20029;-69
2022/07/31 06:49:36;;;;;;;3.80;2.80;;;;;;;;;;5035656;28;20029;-69
2022/07/31 06:52:01;;;;;;;4.60;2.75;;;;;;;;;;5044072;28;20082;-70
2022/07/31 06:54:26;;;;;;;2.85;2.53;;;;;;;;;;5014266;28;20100;-70
2022/07/31 06:56:52;;;;;;;2.67;2.47;;;;;;;;;;5029475;28;20135;-70
2022/07/31 06:59:17;;;;;;;6.38;2.78;;;;;;;;;;5017192;28;20332;-70
2022/07/31 07:01:42;;;;;;;3.05;2.40;;;;;;;;;;5025028;28;20029;-70
2022/07/31 07:04:08;;;;;;;3.85;2.30;;;;;;;;;;5014572;28;20124;-69
2022/07/31 07:06:34;;;;;;;3.15;2.45;;;;;;;;;;5024933;28;20553;-70
2022/07/31 07:08:59;;;;;;;3.60;2.20;;;;;;;;;;5025191;28;20468;-69
2022/07/31 07:11:24;;;;;;;3.25;2.40;;;;;;;;;;5019748;28;20029;-69
2022/07/31 07:13:49;;;;;;;4.00;2.50;;;;;;;;;;5019489;28;20034;-69
2022/07/31 07:16:15;;;;;;;3.03;2.30;;;;;;;;;;5018599;28;20573;-69
2022/07/31 07:18:41;;;;;;;3.00;2.50;;;;;;;;;;5022133;28;20429;-70
2022/07/31 07:21:07;;;;;;;3.83;2.25;;;;;;;;;;5033058;28;20487;-69
2022/07/31 07:23:32;;;;;;;2.50;2.30;;;;;;;;;;5031875;28;20084;-69
2022/07/31 07:25:57;;;;;;;3.35;2.60;;;;;;;;;;5004962;28;20057;-70
2022/07/31 07:28:23;;;;;;;3.15;2.63;;;;;;;;;;5023537;28;20056;-69
2022/07/31 07:30:48;;;;;;;3.65;2.40;;;;;;;;;;5025572;28;20036;-69
2022/07/31 07:33:14;;;;;;;4.25;2.50;;;;;;;;;;5035074;28;20482;-69
2022/07/31 07:35:39;;;;;;;4.40;2.50;;;;;;;;;;5018353;28;20105;-69
2022/07/31 07:38:04;;;;;;;3.92;2.38;;;;;;;;;;5021659;28;20252;-69
2022/07/31 07:40:30;;;;;;;5.03;2.50;;;;;;;;;;5020075;28;20029;-70
2022/07/31 07:42:56;;;;;;;8.38;2.60;;;;;;;;;;5027900;28;20108;-69
2022/07/31 07:45:21;;;;;;;3.25;2.55;;;;;;;;;;5032262;28;20383;-69
2022/07/31 07:47:47;;;;;;;4.07;2.50;;;;;;;;;;5031545;28;20064;-70
2022/07/31 07:50:14;;;;;;;4.00;2.33;;;;;;;;;;5020596;28;20432;-70
2022/07/31 07:52:40;;;;;;;2.20;2.00;;;;;;;;;;5021322;28;20029;-69
2022/07/31 07:55:07;;;;;;;7.55;2.30;;;;;;;;;;5037980;28;20495;-70
2022/07/31 07:57:33;;;;;;;2.53;2.33;;;;;;;;;;5027582;28;20131;-69
2022/07/31 07:59:59;;;;;;;2.65;2.30;;;;;;;;;;5035753;28;20126;-70
2022/07/31 08:02:24;;;;;;;2.70;2.28;;;;;;;;;;5024829;28;20029;-69
2022/07/31 08:04:49;;;;;;;3.47;2.13;;;;;;;;;;5028107;28;20025;-69
2022/07/31 08:07:15;;;;;;;2.47;2.28;;;;;;;;;;5038221;28;20041;-69
2022/07/31 08:09:40;;;;;;;2.80;2.40;;;;;;;;;;5033638;28;20026;-70
2022/07/31 08:12:05;;;;;;;4.33;2.30;;;;;;;;;;5043908;28;20024;-69
2022/07/31 08:14:31;;;;;;;3.03;2.17;;;;;;;;;;5030468;28;20838;-69
2022/07/31 08:16:56;;;;;;;3.33;2.13;;;;;;;;;;5037121;28;20029;-69
2022/07/31 08:19:21;;;;;;;3.95;1.85;;;;;;;;;;5027503;28;20419;-69
2022/07/31 08:21:47;;;;;;;2.20;1.70;;;;;;;;;;5023719;28;20525;-69
2022/07/31 08:24:15;;;;;;;4.15;1.83;;;;;;;;;;5042340;28;20026;-73
2022/07/31 08:29:25;;;;;;;2.40;1.65;;;;;;;;;;5042030;28;20036;-73
2022/07/31 08:31:50;;;;;;;1.65;1.55;;;;;;;;;;5031102;28;20025;-72
2022/07/31 08:34:17;;;;;;;2.42;1.75;;;;;;;;;;5034297;28;20068;-71
2022/07/31 08:36:42;;;;;;;3.88;2.03;;;;;;;;;;5030856;28;20043;-72
2022/07/31 08:39:07;;;;;;;2.53;2.00;;;;;;;;;;5032863;28;20030;-73
2022/07/31 08:41:33;;;;;;;2.55;1.83;;;;;;;;;;5024006;28;20042;-71
2022/07/31 08:43:59;;;;;;;4.45;2.20;;;;;;;;;;5027596;28;20407;-72
2022/07/31 08:46:25;;;;;;;2.13;1.70;;;;;;;;;;5030503;28;20029;-71
2022/07/31 08:48:55;;;;;;;3.47;1.73;;;;;;;;;;5045641;28;20031;-72
2022/07/31 08:51:22;;;;;;;3.03;1.70;;;;;;;;;;5040966;28;20128;-72
2022/07/31 08:53:50;;;;;;;2.30;1.50;;;;;;;;;;5032227;28;20029;-73
2022/07/31 08:56:16;;;;;;;3.92;1.38;;;;;;;;;;5025848;28;20291;-72
2022/07/31 08:58:42;;;;;;;2.25;1.70;;;;;;;;;;5034417;28;20021;-73
2022/07/31 09:01:10;;;;;;;1.77;1.50;;;;;;;;;;5029623;28;20030;-73
2022/07/31 09:03:36;;;;;;;3.20;1.67;;;;;;;;;;5024113;28;20032;-73
2022/07/31 09:06:02;;;;;;;2.17;1.40;;;;;;;;;;5030889;28;20026;-72
2022/07/31 09:08:33;;;;;;;2.38;1.50;;;;;;;;;;5039461;28;20104;-74
2022/07/31 09:11:06;;;;;;;2.30;1.40;;;;;;;;;;5032155;28;20025;-72
2022/07/31 09:13:33;;;;;;;2.72;1.30;;;;;;;;;;5032469;28;20052;-71
2022/07/31 09:15:59;;;;;;;3.92;1.65;;;;;;;;;;5032491;28;20021;-72
2022/07/31 09:18:25;;;;;;;2.35;1.33;;;;;;;;;;5033379;28;20167;-72
2022/07/31 09:21:04;;;;;;;2.88;1.42;;;;;;;;;;5039714;28;20037;-73
2022/07/31 09:23:31;;;;;;;2.20;1.40;;;;;;;;;;5029215;28;20032;-68
2022/07/31 09:25:56;;;;;;;3.47;1.40;;;;;;;;;;5026537;28;20056;-68
2022/07/31 09:28:33;;;;;;;3.23;1.60;;;;;;;;;;5029817;28;20476;-69
2022/07/31 09:30:59;;;;;;;4.82;1.70;;;;;;;;;;5029695;28;20029;-68
2022/07/31 09:33:27;;;;;;;2.58;1.33;;;;;;;;;;5029595;28;20072;-68
2022/07/31 09:35:52;;;;;;;4.40;1.60;;;;;;;;;;5031431;28;20033;-68
2022/07/31 09:38:18;;;;;;;1.60;1.50;;;;;;;;;;5032074;28;20499;-68
2022/07/31 09:40:44;;;;;;;2.05;1.67;;;;;;;;;;5031951;28;20127;-68
2022/07/31 09:43:18;;;;;;;2.95;1.40;;;;;;;;;;5030250;28;20041;-69
2022/07/31 09:45:45;;;;;;;3.38;1.55;;;;;;;;;;5028347;28;20502;-68
2022/07/31 09:48:14;;;;;;;1.85;1.20;;;;;;;;;;5022465;28;20032;-69
2022/07/31 09:50:55;;;;;;;2.35;1.25;;;;;;;;;;5023275;28;20284;-68
2022/07/31 09:53:20;;;;;;;3.88;1.30;;;;;;;;;;5046861;28;20036;-68
2022/07/31 09:55:53;;;;;;;1.85;1.20;;;;;;;;;;5033162;28;20025;-72
2022/07/31 09:58:20;;;;;;;2.25;1.00;;;;;;;;;;5029576;28;20040;-69
2022/07/31 10:00:48;;;;;;;3.30;1.20;;;;;;;;;;5034750;28;20033;-74
2022/07/31 10:03:17;;;;;;;2.55;1.08;;;;;;;;;;5046603;28;20032;-70
2022/07/31 10:05:43;;;;;;;1.48;1.00;;;;;;;;;;5030181;28;20476;-73
2022/07/31 10:08:10;;;;;;;1.90;1.05;;;;;;;;;;5033788;28;20033;-70
2022/07/31 10:10:36;;;;;;;4.32;1.13;;;;;;;;;;5028793;28;20369;-68
2022/07/31 10:13:06;;;;;;;2.55;1.00;;;;;;;;;;5029218;28;20063;-74
2022/07/31 10:15:35;;;;;;;3.13;1.20;;;;;;;;;;5029047;28;20029;-69
2022/07/31 10:18:01;;;;;;;3.55;1.13;;;;;;;;;;5029074;28;20030;-68
2022/07/31 10:20:28;;;;;;;1.67;1.10;;;;;;;;;;5023765;28;20187;-71
2022/07/31 10:23:22;;;;;;;3.85;1.02;;;;;;;;;;5046104;28;20032;-71
2022/07/31 10:25:51;;;;;;;1.88;1.00;;;;;;;;;;5016684;28;20124;-72
2022/07/31 10:28:16;;;;;;;1.15;1.02;;;;;;;;;;5019732;28;20112;-73
2022/07/31 10:30:44;;;;;;;2.13;1.00;;;;;;;;;;5026964;28;20151;-71
2022/07/31 10:33:09;;;;;;;2.05;0.95;;;;;;;;;;5030774;28;20041;-74
2022/07/31 10:35:42;;;;;;;1.47;0.90;;;;;;;;;;5029263;28;20033;-73
2022/07/31 10:38:27;;;;;;;2.42;1.00;;;;;;;;;;5027439;28;20270;-70
2022/07/31 10:41:02;;;;;;;4.50;1.17;;;;;;;;;;5017222;28;20584;-74
2022/07/31 10:43:47;;;;;;;3.58;1.08;;;;;;;;;;5031844;28;20045;-69
2022/07/31 10:46:12;;;;;;;1.63;1.10;;;;;;;;;;5024776;28;20630;-70
2022/07/31 10:48:49;;;;;;;1.10;1.00;;;;;;;;;;5023849;28;20117;-69
2022/07/31 10:51:14;;;;;;;1.85;1.20;;;;;;;;;;5020186;28;20032;-74
2022/07/31 10:53:40;;;;;;;1.05;0.90;;;;;;;;;;5022472;28;20576;-68
2022/07/31 10:56:12;;;;;;;3.13;1.10;;;;;;;;;;5020860;28;20596;-69
2022/07/31 10:58:52;;;;;;;1.27;1.13;;;;;;;;;;5025920;28;20463;-68
2022/07/31 11:01:18;;;;;;;1.75;1.10;;;;;;;;;;5028035;28;20083;-70
2022/07/31 11:03:46;;;;;;;3.10;1.20;;;;;;;;;;5026748;28;20597;-70
2022/07/31 11:06:14;;;;;;;1.42;1.30;;;;;;;;;;5032789;28;20064;-73
2022/07/31 11:08:51;;;;;;;2.50;1.27;;;;;;;;;;5041369;28;20021;-70
2022/07/31 11:11:17;;;;;;;1.30;1.20;;;;;;;;;;5048338;28;20116;-70
2022/07/31 11:13:54;;;;;;;2.75;1.20;;;;;;;;;;5048182;28;20059;-72
2022/07/31 11:16:20;;;;;;;1.20;1.10;;;;;;;;;;5047931;28;20032;-70
2022/07/31 11:18:59;;;;;;;1.40;1.25;;;;;;;;;;5046384;28;20040;-77
2022/07/31 11:21:36;;;;;;;1.92;1.20;;;;;;;;;;5038384;28;20064;-80
2022/07/31 11:24:19;;;;;;;1.63;1.15;;;;;;;;;;5048550;28;20028;-74
2022/07/31 11:26:56;;;;;;;2.85;1.70;;;;;;;;;;5027405;28;20403;-73
2022/07/31 11:29:31;;;;;;;2.25;1.20;;;;;;;;;;5028475;28;20483;-71
2022/07/31 11:32:12;;;;;;;1.75;1.20;;;;;;;;;;5033979;28;20199;-77
2022/07/31 11:34:44;;;;;;;;;;;;;;;;;;5008960;28;20057;-71
2022/07/31 11:37:16;;;;;;;1.85;1.70;;;;;;;;;;5008536;28;20291;-71
2022/07/31 11:39:42;;;;;;;1.67;1.10;;;;;;;;;;5020948;28;20030;-70
2022/07/31 11:42:07;;;;;;;2.30;1.30;;;;;;;;;;5027638;28;20065;-70
2022/07/31 11:44:33;;;;;;;2.90;1.20;;;;;;;;;;5024711;28;20057;-72
2022/07/31 11:46:58;;;;;;;1.38;1.20;;;;;;;;;;5035633;28;20703;-70
2022/07/31 11:49:23;;;;;;;3.17;1.40;;;;;;;;;;5020498;28;20120;-72
2022/07/31 11:51:49;;;;;;;1.93;1.30;;;;;;;;;;5034467;28;20040;-70
2022/07/31 11:54:22;;;;;;;1.70;1.40;;;;;;;;;;5023057;28;20333;-71
2022/07/31 11:56:51;;;;;;;2.85;1.10;;;;;;;;;;5031628;28;20025;-69
2022/07/31 11:59:17;;;;;;;1.60;1.10;;;;;;;;;;5031580;28;20029;-70
2022/07/31 12:01:43;;;;;;;2.33;1.40;;;;;;;;;;5027889;28;20020;-71
2022/07/31 12:04:08;;;;;;;1.60;1.30;;;;;;;;;;5043198;28;20040;-70
2022/07/31 12:06:33;;;;;;;1.80;1.40;;;;;;;;;;5034274;28;20396;-74
2022/07/31 12:08:59;;;;;;;1.42;1.20;;;;;;;;;;5031514;28;20486;-73
2022/07/31 12:11:24;;;;;;;2.17;1.08;;;;;;;;;;5031276;28;20486;-71
2022/07/31 12:13:50;;;;;;;1.40;1.23;;;;;;;;;;5032011;28;20120;-70
2022/07/31 12:16:17;;;;;;;2.05;1.30;;;;;;;;;;5030363;28;20077;-73
2022/07/31 12:18:57;;;;;;;1.95;1.30;;;;;;;;;;5030798;28;20559;-72
2022/07/31 12:21:35;;;;;;;1.50;1.30;;;;;;;;;;5019595;28;20025;-74
2022/07/31 12:24:08;;;;;;;1.40;1.30;;;;;;;;;;5035815;28;20029;-69
2022/07/31 12:26:33;;;;;;;1.50;1.30;;;;;;;;;;5030950;28;20112;-72
2022/07/31 12:29:03;;;;;;;1.20;1.10;;;;;;;;;;5031318;28;20113;-70
2022/07/31 12:31:31;;;;;;;2.65;1.20;;;;;;;;;;5030881;28;20246;-69
2022/07/31 12:33:57;;;;;;;1.52;1.20;;;;;;;;;;5028872;28;20495;-70
2022/07/31 12:36:22;;;;;;;1.65;1.30;;;;;;;;;;5032977;28;20113;-68
2022/07/31 12:39:13;;;;;;;1.40;1.30;;;;;;;;;;5039508;28;20067;-70
2022/07/31 12:41:42;;;;;;;1.35;1.25;;;;;;;;;;5005550;28;20296;-71
2022/07/31 12:44:11;;;;;;;1.45;1.33;;;;;;;;;;5031238;28;20091;-74
2022/07/31 12:46:37;;;;;;;1.30;1.15;;;;;;;;;;5034828;28;20025;-74
2022/07/31 12:49:03;;;;;;;1.30;1.20;;;;;;;;;;5025587;28;20531;-73
2022/07/31 12:51:31;;;;;;;2.90;1.20;;;;;;;;;;5031052;28;20129;-77
2022/07/31 12:53:57;;;;;;;2.03;1.30;;;;;;;;;;5031313;28;20061;-73
2022/07/31 12:56:22;;;;;;;1.73;1.00;;;;;;;;;;5030836;28;20053;-74
2022/07/31 12:58:47;;;;;;;1.55;1.15;;;;;;;;;;5030112;28;20655;-73
2022/07/31 13:01:12;;;;;;;1.67;1.40;;;;;;;;;;5036763;28;20034;-70
2022/07/31 13:03:38;;;;;;;2.33;1.20;;;;;;;;;;5030569;28;20632;-70
2022/07/31 13:06:03;;;;;;;1.40;1.30;;;;;;;;;;5029934;28;20390;-70
2022/07/31 13:08:28;;;;;;;1.10;1.00;;;;;;;;;;5029997;28;20266;-69
2022/07/31 13:10:54;;;;;;;1.45;1.10;;;;;;;;;;5030451;28;20037;-70
2022/07/31 13:13:22;;;;;;;1.40;1.10;;;;;;;;;;5027748;28;20029;-74
2022/07/31 13:15:47;;;;;;;1.33;1.23;;;;;;;;;;5026314;28;20266;-72
2022/07/31 13:18:12;;;;;;;1.30;1.20;;;;;;;;;;5028794;28;20539;-76
2022/07/31 13:20:37;;;;;;;1.40;1.30;;;;;;;;;;5041754;28;20041;-74
2022/07/31 13:23:04;;;;;;;1.20;1.10;;;;;;;;;;5050905;28;20747;-71
2022/07/31 13:25:29;;;;;;;1.98;1.35;;;;;;;;;;5050485;28;20269;-72
2022/07/31 13:27:56;;;;;;;1.25;1.05;;;;;;;;;;5037624;28;20041;-71
2022/07/31 13:30:21;;;;;;;1.33;1.23;;;;;;;;;;5029552;28;20033;-74
2022/07/31 13:32:46;;;;;;;3.10;1.40;;;;;;;;;;5042272;28;20412;-73
2022/07/31 13:35:13;;;;;;;3.03;1.10;;;;;;;;;;5050090;28;20257;-75
2022/07/31 13:37:38;;;;;;;4.93;1.42;;;;;;;;;;5050063;28;20291;-70
2022/07/31 13:40:04;;;;;;;1.85;1.30;;;;;;;;;;5049887;28;20025;-70
2022/07/31 13:42:29;;;;;;;1.30;1.20;;;;;;;;;;5028614;28;20033;-72
2022/07/31 13:44:55;;;;;;;1.57;1.27;;;;;;;;;;5029847;28;20091;-70
2022/07/31 13:47:20;;;;;;;1.53;1.30;;;;;;;;;;5032723;28;20312;-72
2022/07/31 13:49:45;;;;;;;1.25;1.13;;;;;;;;;;5043124;28;20662;-70
2022/07/31 13:52:10;;;;;;;1.25;1.15;;;;;;;;;;5049753;28;20445;-74
2022/07/31 13:54:36;;;;;;;1.27;1.17;;;;;;;;;;5049642;28;20538;-72
2022/07/31 13:57:01;;;;;;;3.57;1.33;;;;;;;;;;5049449;28;20056;-72
2022/07/31 13:59:28;;;;;;;1.50;1.40;;;;;;;;;;5048307;28;20718;-73
2022/07/31 14:01:53;;;;;;;1.40;1.30;;;;;;;;;;5030647;28;20033;-69
2022/07/31 14:04:19;;;;;;;1.85;1.40;;;;;;;;;;5037686;28;20056;-70
2022/07/31 14:06:45;;;;;;;2.20;1.20;;;;;;;;;;5041050;28;20025;-71
2022/07/31 14:09:11;;;;;;;2.22;1.10;;;;;;;;;;5049855;28;20044;-72
2022/07/31 14:11:36;;;;;;;1.73;1.40;;;;;;;;;;5047215;28;20395;-70
2022/07/31 14:14:01;;;;;;;1.53;1.30;;;;;;;;;;5044514;28;20025;-70
2022/07/31 14:16:26;;;;;;;1.40;1.30;;;;;;;;;;5040194;28;20250;-70
2022/07/31 14:18:52;;;;;;;1.60;1.30;;;;;;;;;;5048023;28;20258;-71
2022/07/31 14:21:17;;;;;;;1.50;1.20;;;;;;;;;;5048532;28;20360;-69
2022/07/31 14:23:43;;;;;;;1.95;1.70;;;;;;;;;;5048896;28;20272;-70
2022/07/31 14:26:08;;;;;;;1.33;1.17;;;;;;;;;;5048654;28;20417;-71
2022/07/31 14:28:34;;;;;;;1.30;1.20;;;;;;;;;;5048783;28;20028;-72
2022/07/31 14:30:59;;;;;;;1.73;1.30;;;;;;;;;;5031993;28;20139;-71
2022/07/31 14:33:25;;;;;;;1.30;1.20;;;;;;;;;;5036232;28;20037;-70
2022/07/31 14:35:50;;;;;;;1.30;1.20;;;;;;;;;;5028945;28;20323;-71
2022/07/31 14:38:15;;;;;;;1.45;1.30;;;;;;;;;;5028994;28;20069;-70
2022/07/31 14:40:40;;;;;;;2.30;1.47;;;;;;;;;;5028628;28;20029;-73
2022/07/31 14:43:08;;;;;;;1.50;1.40;;;;;;;;;;5028937;28;20652;-71
2022/07/31 14:45:34;;;;;;;2.95;1.60;;;;;;;;;;5028754;28;20571;-69